createdAt,value
2023-04-01T00:00:31.417Z,7.64
2023-04-01T00:01:33.584Z,7.62
2023-04-01T00:02:35.828Z,7.59
2023-04-01T00:03:38.249Z,7.62
2023-04-01T00:04:40.662Z,7.64
2023-04-01T00:05:42.838Z,7.64
2023-04-01T00:06:45.095Z,7.64
2023-04-01T00:07:47.489Z,7.65
2023-04-01T00:08:49.560Z,7.66
2023-04-01T00:09:51.890Z,7.68
2023-04-01T00:10:54.368Z,7.70
2023-04-01T00:11:56.509Z,7.71
2023-04-01T00:12:59.142Z,7.71
2023-04-01T00:14:01.316Z,7.69
2023-04-01T00:16:21.851Z,7.79
2023-04-01T00:17:19.820Z,7.67
2023-04-01T00:18:22.694Z,7.69
2023-04-01T00:19:24.886Z,7.69
2023-04-01T00:20:27.889Z,7.71
2023-04-01T00:21:30.051Z,7.74
2023-04-01T00:22:32.212Z,7.74
2023-04-01T00:23:34.613Z,7.75
2023-04-01T00:24:36.986Z,7.78
2023-04-01T00:25:39.231Z,7.77
2023-04-01T00:26:41.280Z,7.78
2023-04-01T00:27:43.390Z,7.78
2023-04-01T00:28:45.750Z,7.80
2023-04-01T00:29:48.532Z,7.77
2023-04-01T00:30:51.377Z,7.79
2023-04-01T00:31:54.043Z,7.77
2023-04-01T00:32:57.041Z,7.80
2023-04-01T00:33:59.363Z,7.79
2023-04-01T00:35:01.686Z,7.81
2023-04-01T00:36:15.453Z,7.84
2023-04-01T00:37:18.830Z,7.84
2023-04-01T00:38:21.542Z,7.86
2023-04-01T00:39:23.798Z,7.87
2023-04-01T00:40:36.308Z,7.87
2023-04-01T00:41:38.478Z,7.88
2023-04-01T00:42:40.747Z,7.90
2023-04-01T00:43:45.107Z,7.90
2023-04-01T00:44:55.280Z,7.91
2023-04-01T00:45:58.644Z,7.91
2023-04-01T00:47:01.701Z,7.94
2023-04-01T00:48:14.165Z,7.96
2023-04-01T00:49:20.468Z,7.97
2023-04-01T00:50:25.193Z,7.97
2023-04-01T00:51:30.591Z,8.00
2023-04-01T00:52:33.261Z,7.99
2023-04-01T00:53:39.087Z,7.99
2023-04-01T00:54:44.948Z,7.96
2023-04-01T00:55:56.616Z,7.96
2023-04-01T00:57:08.402Z,7.96
2023-04-01T00:58:14.353Z,7.97
2023-04-01T00:59:22.961Z,7.97
2023-04-01T01:00:25.954Z,7.95
2023-04-01T01:01:29.954Z,7.97
2023-04-01T01:02:35.080Z,7.97
2023-04-01T01:03:37.683Z,7.96
2023-04-01T01:04:40.646Z,7.95
2023-04-01T01:06:21.443Z,7.95
2023-04-01T01:07:43.912Z,7.96
2023-04-01T01:09:01.891Z,7.96
2023-04-01T01:11:47.615Z,8.11
2023-04-01T01:13:19.456Z,7.99
2023-04-01T01:14:56.236Z,8.00
2023-04-01T01:16:08.499Z,7.99
2023-04-01T01:17:32.349Z,8.01
2023-04-01T01:20:15.644Z,8.15
2023-04-01T01:21:52.135Z,8.01
2023-04-01T01:23:10.417Z,8.02
2023-04-01T01:24:17.143Z,8.05
2023-04-01T01:25:35.145Z,8.07
2023-04-01T01:28:11.444Z,8.19
2023-04-01T01:29:35.642Z,8.03
2023-04-01T01:30:41.782Z,7.99
2023-04-01T01:31:54.314Z,8.03
2023-04-01T01:33:15.647Z,8.03
2023-04-01T01:34:24.551Z,7.98
2023-04-01T01:35:41.661Z,8.01
2023-04-01T01:36:49.551Z,8.01
2023-04-01T01:37:55.380Z,8.03
2023-04-01T01:38:59.074Z,8.04
2023-04-01T01:40:07.875Z,8.02
2023-04-01T01:41:15.326Z,8.02
2023-04-01T01:42:19.154Z,8.04
2023-04-01T01:43:43.668Z,8.04
2023-04-01T01:44:49.693Z,8.07
2023-04-01T01:45:55.587Z,8.10
2023-04-01T01:46:58.979Z,8.09
2023-04-01T01:48:05.408Z,8.09
2023-04-01T01:49:10.181Z,8.09
2023-04-01T01:50:15.164Z,8.08
2023-04-01T01:51:20.432Z,8.05
2023-04-01T01:52:23.568Z,8.05
2023-04-01T01:53:25.883Z,8.05
2023-04-01T01:54:28.038Z,8.04
2023-04-01T01:56:46.469Z,8.12
2023-04-01T01:57:49.509Z,7.95
2023-04-01T01:58:56.378Z,7.99
2023-04-01T02:01:19.666Z,8.09
2023-04-01T02:02:23.925Z,7.94
2023-04-01T02:03:29.587Z,7.95
2023-04-01T02:04:32.637Z,7.96
2023-04-01T02:05:36.016Z,7.97
2023-04-01T02:06:52.590Z,7.97
2023-04-01T02:08:10.611Z,7.97
2023-04-01T02:09:13.491Z,7.99
2023-04-01T02:10:16.296Z,7.99
2023-04-01T02:11:22.205Z,8.02
2023-04-01T02:12:25.432Z,8.03
2023-04-01T02:13:34.333Z,8.04
2023-04-01T02:14:43.112Z,8.05
2023-04-01T02:15:49.501Z,8.10
2023-04-01T02:17:04.515Z,8.11
2023-04-01T02:18:08.073Z,8.09
2023-04-01T02:19:13.041Z,8.10
2023-04-01T02:20:19.335Z,8.11
2023-04-01T02:21:24.456Z,8.13
2023-04-01T02:22:35.468Z,8.14
2023-04-01T02:23:39.214Z,8.14
2023-04-01T02:24:44.049Z,8.15
2023-04-01T02:25:48.625Z,8.16
2023-04-01T02:26:52.097Z,8.16
2023-04-01T02:27:57.689Z,8.19
2023-04-01T02:29:02.358Z,8.20
2023-04-01T02:30:06.488Z,8.20
2023-04-01T02:31:11.387Z,8.18
2023-04-01T02:32:15.208Z,8.19
2023-04-01T02:33:19.212Z,8.18
2023-04-01T02:34:23.875Z,8.19
2023-04-01T02:35:26.829Z,8.19
2023-04-01T02:36:29.735Z,8.17
2023-04-01T02:37:33.957Z,8.16
2023-04-01T02:38:36.709Z,8.17
2023-04-01T02:39:39.286Z,8.17
2023-04-01T02:40:53.863Z,8.16
2023-04-01T02:41:56.022Z,8.18
2023-04-01T02:42:58.975Z,8.20
2023-04-01T02:44:01.200Z,8.21
2023-04-01T02:46:19.089Z,8.32
2023-04-01T02:47:21.804Z,8.18
2023-04-01T02:48:26.316Z,8.19
2023-04-01T02:49:28.896Z,8.18
2023-04-01T02:50:31.163Z,8.19
2023-04-01T02:51:34.454Z,8.18
2023-04-01T02:52:36.669Z,8.20
2023-04-01T02:53:38.974Z,8.20
2023-04-01T02:54:41.048Z,8.21
2023-04-01T02:55:43.446Z,8.20
2023-04-01T02:56:47.000Z,8.19
2023-04-01T02:57:49.413Z,8.20
2023-04-01T02:58:51.602Z,8.22
2023-04-01T02:59:53.784Z,8.22
2023-04-01T03:00:56.812Z,8.22
2023-04-01T03:01:59.175Z,8.22
2023-04-01T03:03:01.845Z,8.25
2023-04-01T03:04:05.179Z,8.23
2023-04-01T03:05:07.895Z,8.24
2023-04-01T03:06:13.156Z,8.23
2023-04-01T03:07:15.561Z,8.26
2023-04-01T03:08:18.945Z,8.23
2023-04-01T03:09:21.656Z,8.22
2023-04-01T03:10:24.122Z,8.21
2023-04-01T03:11:26.374Z,8.20
2023-04-01T03:12:29.146Z,8.18
2023-04-01T03:13:31.394Z,8.19
2023-04-01T03:14:33.521Z,8.17
2023-04-01T03:15:35.762Z,8.17
2023-04-01T03:16:38.568Z,8.17
2023-04-01T03:17:43.076Z,8.16
2023-04-01T03:18:45.618Z,8.19
2023-04-01T03:19:48.648Z,8.22
2023-04-01T03:20:51.629Z,8.24
2023-04-01T03:21:53.889Z,8.24
2023-04-01T03:22:56.461Z,8.23
2023-04-01T03:23:58.602Z,8.26
2023-04-01T03:25:00.865Z,8.27
2023-04-01T03:26:03.338Z,8.24
2023-04-01T03:27:05.523Z,8.21
2023-04-01T03:28:07.776Z,8.21
2023-04-01T03:29:10.059Z,8.19
2023-04-01T03:30:12.746Z,8.20
2023-04-01T03:31:16.993Z,8.20
2023-04-01T03:32:21.516Z,8.18
2023-04-01T03:33:24.360Z,8.17
2023-04-01T03:34:26.518Z,8.15
2023-04-01T03:35:28.928Z,8.16
2023-04-01T03:36:32.546Z,8.17
2023-04-01T03:37:34.931Z,8.18
2023-04-01T03:38:37.813Z,8.19
2023-04-01T03:39:40.021Z,8.19
2023-04-01T03:40:45.804Z,8.18
2023-04-01T03:41:48.306Z,8.19
2023-04-01T03:42:50.622Z,8.17
2023-04-01T03:43:54.244Z,8.16
2023-04-01T03:44:56.380Z,8.17
2023-04-01T03:45:58.897Z,8.18
2023-04-01T03:47:01.580Z,8.14
2023-04-01T03:48:04.742Z,8.16
2023-04-01T03:49:09.347Z,8.18
2023-04-01T03:50:11.669Z,8.18
2023-04-01T03:51:15.366Z,8.18
2023-04-01T03:52:17.494Z,8.18
2023-04-01T03:53:19.623Z,8.18
2023-04-01T03:54:22.569Z,8.16
2023-04-01T03:55:24.850Z,8.17
2023-04-01T03:56:27.225Z,8.17
2023-04-01T03:57:31.604Z,8.19
2023-04-01T03:58:35.586Z,8.20
2023-04-01T03:59:37.971Z,8.23
2023-04-01T04:00:40.891Z,8.24
2023-04-01T04:01:46.910Z,8.26
2023-04-01T04:02:49.314Z,8.26
2023-04-01T04:03:54.374Z,8.26
2023-04-01T04:04:57.532Z,8.27
2023-04-01T04:06:00.231Z,8.29
2023-04-01T04:07:02.842Z,8.31
2023-04-01T04:08:06.951Z,8.32
2023-04-01T04:09:09.228Z,8.30
2023-04-01T04:10:12.135Z,8.32
2023-04-01T04:11:14.226Z,8.30
2023-04-01T04:12:17.583Z,8.31
2023-04-01T04:13:19.878Z,8.29
2023-04-01T04:14:24.195Z,8.32
2023-04-01T04:15:27.074Z,8.32
2023-04-01T04:16:29.869Z,8.31
2023-04-01T04:17:34.024Z,8.31
2023-04-01T04:18:37.709Z,8.31
2023-04-01T04:19:39.924Z,8.30
2023-04-01T04:20:46.344Z,8.32
2023-04-01T04:21:48.666Z,8.33
2023-04-01T04:22:50.962Z,8.33
2023-04-01T04:23:53.117Z,8.32
2023-04-01T04:24:55.691Z,8.32
2023-04-01T04:27:12.435Z,8.45
2023-04-01T04:28:16.661Z,8.30
2023-04-01T04:29:18.917Z,8.30
2023-04-01T04:30:21.550Z,8.28
2023-04-01T04:31:25.558Z,8.29
2023-04-01T04:32:30.025Z,8.32
2023-04-01T04:33:34.391Z,8.27
2023-04-01T04:34:37.280Z,8.26
2023-04-01T04:35:39.637Z,8.26
2023-04-01T04:36:43.425Z,8.26
2023-04-01T04:37:45.533Z,8.25
2023-04-01T04:38:48.633Z,8.27
2023-04-01T04:39:51.123Z,8.26
2023-04-01T04:40:53.741Z,8.29
2023-04-01T04:41:56.031Z,8.30
2023-04-01T04:42:58.300Z,8.33
2023-04-01T04:44:01.149Z,8.33
2023-04-01T04:45:03.883Z,8.33
2023-04-01T04:46:11.594Z,8.34
2023-04-01T04:47:14.759Z,8.36
2023-04-01T04:48:17.343Z,8.36
2023-04-01T04:49:20.726Z,8.37
2023-04-01T04:50:24.123Z,8.40
2023-04-01T04:51:26.462Z,8.38
2023-04-01T04:52:28.578Z,8.36
2023-04-01T04:53:31.235Z,8.36
2023-04-01T04:54:33.502Z,8.35
2023-04-01T04:55:37.923Z,8.38
2023-04-01T04:56:57.878Z,8.40
2023-04-01T04:58:01.323Z,8.43
2023-04-01T04:59:04.256Z,8.45
2023-04-01T05:00:10.070Z,8.42
2023-04-01T05:01:26.735Z,8.44
2023-04-01T05:02:29.543Z,8.43
2023-04-01T05:03:33.054Z,8.44
2023-04-01T05:04:37.334Z,8.42
2023-04-01T05:05:41.020Z,8.43
2023-04-01T05:06:44.551Z,8.40
2023-04-01T05:07:46.762Z,8.38
2023-04-01T05:08:49.168Z,8.39
2023-04-01T05:09:52.437Z,8.39
2023-04-01T05:10:54.942Z,8.39
2023-04-01T05:11:57.189Z,8.41
2023-04-01T05:13:00.060Z,8.41
2023-04-01T05:14:03.542Z,8.40
2023-04-01T05:15:08.187Z,8.42
2023-04-01T05:17:22.502Z,8.51
2023-04-01T05:18:24.719Z,8.37
2023-04-01T05:19:26.992Z,8.36
2023-04-01T05:20:29.889Z,8.33
2023-04-01T05:21:32.848Z,8.32
2023-04-01T05:22:35.136Z,8.33
2023-04-01T05:23:38.194Z,8.34
2023-04-01T05:24:40.519Z,8.35
2023-04-01T05:25:43.573Z,8.36
2023-04-01T05:26:47.332Z,8.39
2023-04-01T05:27:50.126Z,8.40
2023-04-01T05:28:52.958Z,8.43
2023-04-01T05:29:57.081Z,8.41
2023-04-01T05:31:03.063Z,8.41
2023-04-01T05:32:13.078Z,8.40
2023-04-01T05:33:15.799Z,8.42
2023-04-01T05:34:18.590Z,8.41
2023-04-01T05:35:21.317Z,8.38
2023-04-01T05:36:23.798Z,8.37
2023-04-01T05:37:26.592Z,8.38
2023-04-01T05:38:29.997Z,8.39
2023-04-01T05:39:32.282Z,8.42
2023-04-01T05:40:34.717Z,8.45
2023-04-01T05:41:39.157Z,8.43
2023-04-01T05:42:41.329Z,8.44
2023-04-01T05:43:43.618Z,8.46
2023-04-01T05:45:59.131Z,8.58
2023-04-01T05:47:06.034Z,8.47
2023-04-01T05:48:08.434Z,8.47
2023-04-01T05:49:12.682Z,8.47
2023-04-01T05:51:24.937Z,8.62
2023-04-01T05:52:27.205Z,8.51
2023-04-01T05:53:29.413Z,8.55
2023-04-01T05:54:31.703Z,8.60
2023-04-01T05:55:36.117Z,8.61
2023-04-01T05:56:38.855Z,8.63
2023-04-01T05:57:41.159Z,8.64
2023-04-01T05:58:44.070Z,8.65
2023-04-01T05:59:46.506Z,8.66
2023-04-01T06:00:56.063Z,8.68
2023-04-01T06:01:53.362Z,8.70
2023-04-01T06:04:06.293Z,8.80
2023-04-01T06:05:23.280Z,8.73
2023-04-01T06:06:28.548Z,8.76
2023-04-01T06:07:32.774Z,8.79
2023-04-01T06:09:45.616Z,8.91
2023-04-01T06:10:57.574Z,8.77
2023-04-01T06:14:01.187Z,8.94
2023-04-01T06:16:56.547Z,8.94
2023-04-01T06:19:23.245Z,8.95
2023-04-01T06:20:37.782Z,8.87
2023-04-01T06:21:58.461Z,8.93
2023-04-01T06:23:21.387Z,8.98
2023-04-01T06:25:48.080Z,9.16
2023-04-01T06:27:06.090Z,9.04
2023-04-01T06:28:39.410Z,9.05
2023-04-01T06:30:11.111Z,9.05
2023-04-01T06:31:35.101Z,9.08
2023-04-01T06:32:44.306Z,9.09
2023-04-01T06:33:50.245Z,9.12
2023-04-01T06:35:17.702Z,9.14
2023-04-01T06:36:50.194Z,9.12
2023-04-01T06:38:18.735Z,9.12
2023-04-01T06:39:58.510Z,9.16
2023-04-01T06:42:42.105Z,9.33
2023-04-01T06:45:38.634Z,9.30
2023-04-01T06:47:26.439Z,9.16
2023-04-01T06:48:59.953Z,9.16
2023-04-01T06:51:50.608Z,9.26
2023-04-01T06:53:15.098Z,9.11
2023-04-01T06:54:39.420Z,9.10
2023-04-01T06:57:26.513Z,9.16
2023-04-01T06:58:39.253Z,9.04
2023-04-01T06:59:42.982Z,9.04
2023-04-01T07:00:48.814Z,9.05
2023-04-01T07:01:55.195Z,9.06
2023-04-01T07:03:19.504Z,9.04
2023-04-01T07:04:34.769Z,9.05
2023-04-01T07:05:38.091Z,9.05
2023-04-01T07:08:18.797Z,9.15
2023-04-01T07:09:25.272Z,9.07
2023-04-01T07:12:05.366Z,9.25
2023-04-01T07:13:27.807Z,9.12
2023-04-01T07:14:39.889Z,9.16
2023-04-01T07:15:45.945Z,9.19
2023-04-01T07:18:20.264Z,9.35
2023-04-01T07:19:42.289Z,9.25
2023-04-01T07:20:48.156Z,9.27
2023-04-01T07:22:03.017Z,9.29
2023-04-01T07:23:13.758Z,9.30
2023-04-01T07:25:45.679Z,9.44
2023-04-01T07:28:09.564Z,9.44
2023-04-01T07:29:15.007Z,9.33
2023-04-01T07:30:24.912Z,9.32
2023-04-01T07:31:37.938Z,9.31
2023-04-01T07:32:43.869Z,9.32
2023-04-01T07:35:19.584Z,9.50
2023-04-01T07:36:32.507Z,9.39
2023-04-01T07:39:06.342Z,9.53
2023-04-01T07:40:23.546Z,9.43
2023-04-01T07:43:13.175Z,9.58
2023-04-01T07:44:20.925Z,9.49
2023-04-01T07:46:58.196Z,9.68
2023-04-01T07:48:06.945Z,9.56
2023-04-01T07:49:31.142Z,9.58
2023-04-01T07:50:43.480Z,9.56
2023-04-01T07:52:06.949Z,9.53
2023-04-01T07:53:20.707Z,9.53
2023-04-01T07:56:14.763Z,9.66
2023-04-01T07:57:50.890Z,9.56
2023-04-01T07:59:15.138Z,9.58
2023-04-01T08:00:38.592Z,9.59
2023-04-01T08:02:10.945Z,9.59
2023-04-01T08:03:36.342Z,9.62
2023-04-01T08:04:47.317Z,9.65
2023-04-01T08:07:11.291Z,9.80
2023-04-01T08:08:21.986Z,9.68
2023-04-01T08:09:42.800Z,9.70
2023-04-01T08:12:37.429Z,9.80
2023-04-01T08:14:08.997Z,9.70
2023-04-01T08:15:17.939Z,9.70
2023-04-01T08:16:37.817Z,9.74
2023-04-01T08:17:47.557Z,9.78
2023-04-01T08:19:05.801Z,9.79
2023-04-01T08:21:37.558Z,9.97
2023-04-01T08:22:51.847Z,9.88
2023-04-01T08:24:02.987Z,9.89
2023-04-01T08:25:08.683Z,9.94
2023-04-01T08:26:28.879Z,9.97
2023-04-01T08:27:40.978Z,10.01
2023-04-01T08:29:06.783Z,10.07
2023-04-01T08:31:40.536Z,10.25
2023-04-01T08:32:46.992Z,10.18
2023-04-01T08:33:51.862Z,10.22
2023-04-01T08:35:00.985Z,10.23
2023-04-01T08:36:21.339Z,10.26
2023-04-01T08:37:31.819Z,10.29
2023-04-01T08:38:53.503Z,10.30
2023-04-01T08:41:27.909Z,10.45
2023-04-01T08:43:07.587Z,10.36
2023-04-01T08:45:47.788Z,10.56
2023-04-01T08:46:56.590Z,10.45
2023-04-01T08:48:17.334Z,10.47
2023-04-01T08:49:35.680Z,10.50
2023-04-01T08:52:28.564Z,10.65
2023-04-01T08:55:30.987Z,10.66
2023-04-01T08:56:41.998Z,10.54
2023-04-01T08:58:23.453Z,10.56
2023-04-01T08:59:43.646Z,10.57
2023-04-01T09:02:16.725Z,10.69
2023-04-01T09:05:23.751Z,10.74
2023-04-01T09:06:36.041Z,10.60
2023-04-01T09:07:54.241Z,10.68
2023-04-01T09:09:04.280Z,10.69
2023-04-01T09:10:33.233Z,10.71
2023-04-01T09:11:53.197Z,10.73
2023-04-01T09:13:23.238Z,10.76
2023-04-01T09:16:08.088Z,10.93
2023-04-01T09:17:30.588Z,10.84
2023-04-01T09:18:46.281Z,10.88
2023-04-01T09:21:54.124Z,11.10
2023-04-01T09:23:12.093Z,11.01
2023-04-01T09:24:44.306Z,11.06
2023-04-01T09:26:08.216Z,11.08
2023-04-01T09:28:53.087Z,11.30
2023-04-01T09:30:22.009Z,11.21
2023-04-01T09:31:34.418Z,11.20
2023-04-01T09:33:20.057Z,11.24
2023-04-01T09:34:38.069Z,11.29
2023-04-01T09:35:49.771Z,11.35
2023-04-01T09:37:18.176Z,11.39
2023-04-01T09:38:23.332Z,11.45
2023-04-01T09:39:35.196Z,11.55
2023-04-01T09:41:00.071Z,11.59
2023-04-01T09:42:29.171Z,11.64
2023-04-01T09:48:01.943Z,11.94
2023-04-01T09:49:26.632Z,11.89
2023-04-01T09:50:36.010Z,11.98
2023-04-01T09:51:58.821Z,12.00
2023-04-01T09:53:13.987Z,12.04
2023-04-01T09:54:25.792Z,12.02
2023-04-01T09:56:05.699Z,12.07
2023-04-01T09:57:19.255Z,12.10
2023-04-01T10:00:13.856Z,12.28
2023-04-01T10:01:44.599Z,12.15
2023-04-01T10:02:52.921Z,12.15
2023-04-01T10:04:09.700Z,12.12
2023-04-01T10:05:38.457Z,12.11
2023-04-01T10:06:57.389Z,12.11
2023-04-01T10:08:23.338Z,12.16
2023-04-01T10:09:45.064Z,12.17
2023-04-01T10:12:39.010Z,12.30
2023-04-01T10:14:17.046Z,12.21
2023-04-01T10:15:47.371Z,12.24
2023-04-01T10:17:29.819Z,12.27
2023-04-01T10:18:59.545Z,12.30
2023-04-01T10:20:12.586Z,12.32
2023-04-01T10:21:37.803Z,12.36
2023-04-01T10:23:00.391Z,12.34
2023-04-01T10:24:26.083Z,12.37
2023-04-01T10:25:50.113Z,12.39
2023-04-01T10:26:57.844Z,12.44
2023-04-01T10:28:25.314Z,12.44
2023-04-01T10:31:19.592Z,12.66
2023-04-01T10:34:07.062Z,12.82
2023-04-01T10:35:30.341Z,12.77
2023-04-01T10:36:48.777Z,12.86
2023-04-01T10:39:58.258Z,13.19
2023-04-01T10:41:30.164Z,13.12
2023-04-01T10:44:55.453Z,13.27
2023-04-01T10:47:39.452Z,13.26
2023-04-01T10:49:19.287Z,13.15
2023-04-01T10:51:56.978Z,13.24
2023-04-01T10:53:13.536Z,13.12
2023-04-01T10:54:39.989Z,13.13
2023-04-01T10:56:09.810Z,13.14
2023-04-01T10:58:06.959Z,13.15
2023-04-01T10:59:38.587Z,13.16
2023-04-01T11:02:53.061Z,13.25
2023-04-01T11:04:28.933Z,13.10
2023-04-01T11:06:09.783Z,13.12
2023-04-01T11:07:39.034Z,13.09
2023-04-01T11:09:04.949Z,13.12
2023-04-01T11:10:31.523Z,13.13
2023-04-01T11:11:49.952Z,13.12
2023-04-01T11:13:27.857Z,13.13
2023-04-01T11:14:52.323Z,13.16
2023-04-01T11:16:22.411Z,13.19
2023-04-01T11:17:54.059Z,13.20
2023-04-01T11:19:02.883Z,13.21
2023-04-01T11:20:33.521Z,13.17
2023-04-01T11:23:07.100Z,13.26
2023-04-01T11:29:20.008Z,13.34
2023-04-01T11:30:35.437Z,13.25
2023-04-01T11:31:53.172Z,13.30
2023-04-01T11:33:04.747Z,13.33
2023-04-01T11:34:28.693Z,13.33
2023-04-01T11:35:50.186Z,13.33
2023-04-01T11:38:58.180Z,13.40
2023-04-01T11:41:59.711Z,13.40
2023-04-01T11:43:39.228Z,13.27
2023-04-01T11:47:51.940Z,13.34
2023-04-01T11:54:06.665Z,13.37
2023-04-01T11:55:31.367Z,13.28
2023-04-01T11:56:40.764Z,13.29
2023-04-01T11:58:12.616Z,13.31
2023-04-01T11:59:37.206Z,13.33
2023-04-01T12:02:54.562Z,13.53
2023-04-01T12:04:00.720Z,13.48
2023-04-01T12:05:07.148Z,13.51
2023-04-01T12:06:42.222Z,13.56
2023-04-01T12:08:00.437Z,13.61
2023-04-01T12:09:35.989Z,13.65
2023-04-01T12:11:00.453Z,13.68
2023-04-01T12:13:55.106Z,13.85
2023-04-01T12:15:06.114Z,13.72
2023-04-01T12:16:41.165Z,13.73
2023-04-01T12:17:50.714Z,13.73
2023-04-01T12:19:27.523Z,13.73
2023-04-01T12:20:51.084Z,13.75
2023-04-01T12:21:57.340Z,13.76
2023-04-01T12:23:09.405Z,13.77
2023-04-01T12:24:30.066Z,13.78
2023-04-01T12:25:56.108Z,13.78
2023-04-01T12:27:17.186Z,13.80
2023-04-01T12:28:22.958Z,13.82
2023-04-01T12:29:37.749Z,13.84
2023-04-01T12:30:43.606Z,13.83
2023-04-01T12:31:55.409Z,13.81
2023-04-01T12:33:17.052Z,13.81
2023-04-01T12:34:42.793Z,13.82
2023-04-01T12:36:08.494Z,13.81
2023-04-01T12:37:30.033Z,13.84
2023-04-01T12:39:54.798Z,13.93
2023-04-01T12:41:10.171Z,13.84
2023-04-01T12:42:19.442Z,13.84
2023-04-01T12:44:46.455Z,13.97
2023-04-01T12:45:52.397Z,13.89
2023-04-01T12:47:15.285Z,13.90
2023-04-01T12:48:33.562Z,13.92
2023-04-01T12:49:51.617Z,13.94
2023-04-01T12:52:34.210Z,14.12
2023-04-01T12:56:19.516Z,14.19
2023-04-01T12:59:18.371Z,14.21
2023-04-01T13:00:45.027Z,14.10
2023-04-01T13:03:27.270Z,14.19
2023-04-01T13:06:30.484Z,14.19
2023-04-01T13:09:14.021Z,14.19
2023-04-01T13:10:36.894Z,14.06
2023-04-01T13:13:33.104Z,14.14
2023-04-01T13:14:57.113Z,14.05
2023-04-01T13:16:06.516Z,14.06
2023-04-01T13:17:22.030Z,14.09
2023-04-01T13:18:34.064Z,14.12
2023-04-01T13:21:18.838Z,14.26
2023-04-01T13:23:53.415Z,14.27
2023-04-01T13:26:38.511Z,14.26
2023-04-01T13:27:44.466Z,14.17
2023-04-01T13:28:50.772Z,14.15
2023-04-01T13:30:20.935Z,14.15
2023-04-01T13:31:33.009Z,14.14
2023-04-01T13:32:44.724Z,14.13
2023-04-01T13:35:03.400Z,14.19
2023-04-01T13:36:10.802Z,14.06
2023-04-01T13:39:02.750Z,14.14
2023-04-01T13:40:42.785Z,14.01
2023-04-01T13:42:05.117Z,14.01
2023-04-01T13:43:26.605Z,13.99
2023-04-01T13:44:56.535Z,13.98
2023-04-01T13:46:06.008Z,13.98
2023-04-01T13:48:58.846Z,14.05
2023-04-01T13:50:29.663Z,13.93
2023-04-01T13:51:57.838Z,13.94
2023-04-01T13:53:26.626Z,13.94
2023-04-01T13:54:47.616Z,13.93
2023-04-01T13:56:14.603Z,13.91
2023-04-01T13:57:39.625Z,13.91
2023-04-01T13:59:00.230Z,13.89
2023-04-01T14:00:29.358Z,13.88
2023-04-01T14:02:03.396Z,13.88
2023-04-01T14:03:15.426Z,13.86
2023-04-01T14:04:44.095Z,13.86
2023-04-01T14:06:08.104Z,13.84
2023-04-01T14:07:40.125Z,13.85
2023-04-01T14:09:14.450Z,13.83
2023-04-01T14:10:43.386Z,13.84
2023-04-01T14:13:42.457Z,13.91
2023-04-01T14:15:23.797Z,13.82
2023-04-01T14:18:01.370Z,13.89
2023-04-01T14:19:24.068Z,13.78
2023-04-01T14:20:41.822Z,13.76
2023-04-01T14:22:04.351Z,13.77
2023-04-01T14:23:38.349Z,13.75
2023-04-01T14:25:17.573Z,13.74
2023-04-01T14:26:23.798Z,13.71
2023-04-01T14:27:45.970Z,13.70
2023-04-01T14:29:10.154Z,13.69
2023-04-01T14:30:19.166Z,13.68
2023-04-01T14:31:38.593Z,13.66
2023-04-01T14:32:44.458Z,13.65
2023-04-01T14:34:05.381Z,13.63
2023-04-01T14:35:26.001Z,13.62
2023-04-01T14:38:20.123Z,13.67
2023-04-01T14:39:42.595Z,13.55
2023-04-01T14:41:06.242Z,13.55
2023-04-01T14:42:29.862Z,13.54
2023-04-01T14:43:56.765Z,13.51
2023-04-01T14:45:11.841Z,13.52
2023-04-01T14:47:53.286Z,13.59
2023-04-01T14:49:17.691Z,13.48
2023-04-01T14:50:26.654Z,13.47
2023-04-01T14:51:32.920Z,13.47
2023-04-01T14:52:38.708Z,13.48
2023-04-01T14:53:48.073Z,13.45
2023-04-01T14:54:52.281Z,13.45
2023-04-01T14:57:12.073Z,13.54
2023-04-01T14:58:18.295Z,13.41
2023-04-01T14:59:27.839Z,13.41
2023-04-01T15:00:33.811Z,13.41
2023-04-01T15:01:58.210Z,13.40
2023-04-01T15:03:16.502Z,13.39
2023-04-01T15:04:37.435Z,13.38
2023-04-01T15:05:52.222Z,13.36
2023-04-01T15:07:22.027Z,13.34
2023-04-01T15:08:30.672Z,13.33
2023-04-01T15:09:54.074Z,13.25
2023-04-01T15:12:36.399Z,13.21
2023-04-01T15:15:41.357Z,13.04
2023-04-01T15:19:48.053Z,12.82
2023-04-01T15:21:26.634Z,12.62
2023-04-01T15:22:33.502Z,12.55
2023-04-01T15:26:47.476Z,12.43
2023-04-01T15:27:58.849Z,12.25
2023-04-01T15:29:28.603Z,12.20
2023-04-01T15:30:41.574Z,12.17
2023-04-01T15:31:53.195Z,12.12
2023-04-01T15:33:25.482Z,12.10
2023-04-01T15:36:04.522Z,12.17
2023-04-01T15:37:31.371Z,12.02
2023-04-01T15:38:37.606Z,12.01
2023-04-01T15:39:49.244Z,12.01
2023-04-01T15:40:58.726Z,12.00
2023-04-01T15:42:16.692Z,12.01
2023-04-01T15:44:46.397Z,12.15
2023-04-01T15:46:12.424Z,12.02
2023-04-01T15:47:36.001Z,12.04
2023-04-01T15:48:56.646Z,12.06
2023-04-01T15:50:23.485Z,12.09
2023-04-01T15:51:44.029Z,12.10
2023-04-01T15:53:06.881Z,12.11
2023-04-01T15:54:27.957Z,12.12
2023-04-01T15:55:50.849Z,12.12
2023-04-01T15:57:11.818Z,12.13
2023-04-01T15:58:35.275Z,12.11
2023-04-01T16:00:04.901Z,12.13
2023-04-01T16:01:42.261Z,12.13
2023-04-01T16:03:04.683Z,12.14
2023-04-01T16:04:25.738Z,12.15
2023-04-01T16:06:56.419Z,12.25
2023-04-01T16:08:11.475Z,12.11
2023-04-01T16:09:21.059Z,12.10
2023-04-01T16:11:59.488Z,12.21
2023-04-01T16:13:14.559Z,12.08
2023-04-01T16:14:27.865Z,12.10
2023-04-01T16:15:46.104Z,12.11
2023-04-01T16:17:20.011Z,12.10
2023-04-01T16:20:17.864Z,12.27
2023-04-01T16:21:53.041Z,12.14
2023-04-01T16:24:16.761Z,12.29
2023-04-01T16:25:38.007Z,12.15
2023-04-01T16:26:47.742Z,12.13
2023-04-01T16:28:10.320Z,12.16
2023-04-01T16:29:28.446Z,12.13
2023-04-01T16:30:42.798Z,12.12
2023-04-01T16:33:03.580Z,12.18
2023-04-01T16:34:29.050Z,12.02
2023-04-01T16:35:38.806Z,12.03
2023-04-01T16:36:50.917Z,12.03
2023-04-01T16:38:03.260Z,12.03
2023-04-01T16:39:35.332Z,12.03
2023-04-01T16:40:44.885Z,12.01
2023-04-01T16:41:57.267Z,11.99
2023-04-01T16:43:12.304Z,11.97
2023-04-01T16:44:23.393Z,11.96
2023-04-01T16:45:38.029Z,11.96
2023-04-01T16:46:43.239Z,11.96
2023-04-01T16:48:12.133Z,11.93
2023-04-01T16:49:27.211Z,11.90
2023-04-01T16:50:42.643Z,11.89
2023-04-01T16:51:49.459Z,11.85
2023-04-01T16:53:01.848Z,11.82
2023-04-01T16:54:17.615Z,11.81
2023-04-01T16:55:22.235Z,11.81
2023-04-01T16:56:27.424Z,11.79
2023-04-01T16:57:46.613Z,11.77
2023-04-01T16:59:19.783Z,11.73
2023-04-01T17:00:32.310Z,11.76
2023-04-01T17:01:55.918Z,11.76
2023-04-01T17:03:05.150Z,11.74
2023-04-01T17:05:25.501Z,11.83
2023-04-01T17:08:11.630Z,11.83
2023-04-01T17:11:10.343Z,11.79
2023-04-01T17:12:41.155Z,11.66
2023-04-01T17:13:53.434Z,11.65
2023-04-01T17:14:59.225Z,11.66
2023-04-01T17:16:23.709Z,11.66
2023-04-01T17:17:48.052Z,11.68
2023-04-01T17:18:59.992Z,11.67
2023-04-01T17:20:29.158Z,11.68
2023-04-01T17:23:14.333Z,11.75
2023-04-01T17:26:08.055Z,11.66
2023-04-01T17:27:35.052Z,11.49
2023-04-01T17:28:52.439Z,11.50
2023-04-01T17:30:21.847Z,11.51
2023-04-01T17:31:44.261Z,11.50
2023-04-01T17:33:06.115Z,11.50
2023-04-01T17:34:30.534Z,11.48
2023-04-01T17:35:45.823Z,11.46
2023-04-01T17:37:17.870Z,11.45
2023-04-01T17:38:53.194Z,11.45
2023-04-01T17:41:27.225Z,11.60
2023-04-01T17:42:44.906Z,11.44
2023-04-01T17:44:17.619Z,11.44
2023-04-01T17:46:38.655Z,11.57
2023-04-01T17:48:11.663Z,11.43
2023-04-01T17:49:35.658Z,11.42
2023-04-01T17:52:08.918Z,11.63
2023-04-01T17:53:33.328Z,11.48
2023-04-01T17:54:48.988Z,11.50
2023-04-01T17:55:57.967Z,11.51
2023-04-01T17:57:22.773Z,11.53
2023-04-01T17:59:01.550Z,11.54
2023-04-01T18:00:23.995Z,11.55
2023-04-01T18:01:30.625Z,11.56
2023-04-01T18:04:09.052Z,11.63
2023-04-01T18:05:21.218Z,11.46
2023-04-01T18:06:29.968Z,11.49
2023-04-01T18:07:51.535Z,11.49
2023-04-01T18:09:06.440Z,11.48
2023-04-01T18:10:29.035Z,11.48
2023-04-01T18:11:35.996Z,11.47
2023-04-01T18:14:06.238Z,11.54
2023-04-01T18:15:20.628Z,11.36
2023-04-01T18:16:32.235Z,11.37
2023-04-01T18:19:19.491Z,11.51
2023-04-01T18:22:02.204Z,11.51
2023-04-01T18:23:24.563Z,11.30
2023-04-01T18:25:47.990Z,11.47
2023-04-01T18:28:18.668Z,11.43
2023-04-01T18:29:30.566Z,11.25
2023-04-01T18:30:35.219Z,11.26
2023-04-01T18:32:53.199Z,11.37
2023-04-01T18:35:32.217Z,11.32
2023-04-01T18:38:18.058Z,11.30
2023-04-01T18:39:39.668Z,11.15
2023-04-01T18:40:52.075Z,11.14
2023-04-01T18:42:14.887Z,11.16
2023-04-01T18:43:29.840Z,11.15
2023-04-01T18:44:47.473Z,11.18
2023-04-01T18:47:27.291Z,11.33
2023-04-01T18:48:58.946Z,11.22
2023-04-01T18:50:17.670Z,11.23
2023-04-01T18:51:38.880Z,11.24
2023-04-01T18:52:45.712Z,11.21
2023-04-01T18:54:07.201Z,11.20